createdAt,value
2018-04-29T00:02:33.084Z,14.18
2018-04-29T00:07:27.896Z,14.14
2018-04-29T00:12:25.018Z,14.18
2018-04-29T00:17:21.582Z,14.11
2018-04-29T00:22:16.905Z,14.03
2018-04-29T00:27:12.708Z,14.05
2018-04-29T00:32:09.397Z,14.17
2018-04-29T00:37:04.722Z,14.25
2018-04-29T00:42:01.140Z,14.30
2018-04-29T00:47:00.596Z,14.43
2018-04-29T00:51:56.012Z,14.22
2018-04-29T00:56:52.330Z,14.04
2018-04-29T01:01:48.396Z,13.87
2018-04-29T01:06:47.819Z,13.79
2018-04-29T01:11:46.554Z,13.60
2018-04-29T01:16:45.561Z,13.59
2018-04-29T01:21:44.169Z,13.39
2018-04-29T01:26:43.536Z,13.19
2018-04-29T01:31:43.251Z,13.12
2018-04-29T01:36:37.990Z,13.03
2018-04-29T01:41:34.749Z,13.03
2018-04-29T01:46:31.023Z,12.91
2018-04-29T01:51:26.795Z,12.90
2018-04-29T01:56:22.596Z,12.94
2018-04-29T02:01:18.349Z,12.97
2018-04-29T02:06:15.297Z,12.75
2018-04-29T02:11:11.725Z,12.55
2018-04-29T02:16:10.999Z,12.42
2018-04-29T02:21:07.209Z,12.49
2018-04-29T02:26:02.478Z,12.32
2018-04-29T02:30:58.263Z,12.32
2018-04-29T02:35:58.868Z,12.18
2018-04-29T02:40:53.597Z,12.10
2018-04-29T02:45:49.495Z,12.04
2018-04-29T02:50:45.240Z,11.95
2018-04-29T02:55:40.951Z,11.83
2018-04-29T03:00:40.153Z,11.78
2018-04-29T03:05:36.090Z,11.80
2018-04-29T03:10:31.469Z,11.65
2018-04-29T03:15:28.174Z,11.51
2018-04-29T03:20:24.004Z,11.48
2018-04-29T03:25:20.371Z,11.43
2018-04-29T03:30:16.291Z,11.30
2018-04-29T03:35:15.566Z,11.32
2018-04-29T03:40:10.355Z,11.22
2018-04-29T03:45:10.153Z,11.07
2018-04-29T03:50:08.984Z,11.10
2018-04-29T03:55:03.781Z,10.99
2018-04-29T03:59:59.766Z,10.96
2018-04-29T04:04:56.515Z,10.89
2018-04-29T04:09:52.001Z,10.97
2018-04-29T04:14:48.534Z,11.02
2018-04-29T04:19:44.139Z,11.11
2018-04-29T04:24:40.049Z,11.04
2018-04-29T04:29:40.221Z,10.86
2018-04-29T04:34:36.773Z,10.99
2018-04-29T04:39:32.566Z,11.14
2018-04-29T04:44:32.385Z,11.29
2018-04-29T04:49:28.542Z,11.40
2018-04-29T04:54:24.034Z,11.35
2018-04-29T04:59:20.740Z,11.41
2018-04-29T05:04:20.210Z,11.45
2018-04-29T05:09:20.333Z,11.59
2018-04-29T05:14:16.113Z,11.57
2018-04-29T05:19:11.731Z,11.60
2018-04-29T05:24:07.658Z,11.32
2018-04-29T05:29:03.585Z,11.29
2018-04-29T05:34:00.543Z,11.41
2018-04-29T05:38:56.587Z,11.54
2018-04-29T05:43:52.652Z,11.84
2018-04-29T05:48:49.627Z,12.03
2018-04-29T05:53:45.537Z,12.25
2018-04-29T05:58:42.076Z,12.50
2018-04-29T06:03:39.706Z,12.82
2018-04-29T06:08:39.933Z,13.27
2018-04-29T06:13:36.306Z,13.56
2018-04-29T06:18:31.986Z,13.81
2018-04-29T06:23:28.292Z,13.78
2018-04-29T06:28:24.276Z,13.99
2018-04-29T06:33:20.320Z,13.97
2018-04-29T06:38:16.387Z,14.14
2018-04-29T06:43:13.254Z,14.32
2018-04-29T06:48:08.887Z,14.48
2018-04-29T06:53:05.097Z,14.40
2018-04-29T06:58:00.790Z,14.45
2018-04-29T07:02:56.842Z,14.55
2018-04-29T07:07:53.765Z,14.66
2018-04-29T07:12:49.601Z,14.77
2018-04-29T07:17:50.223Z,14.63
2018-04-29T07:22:45.199Z,14.88
2018-04-29T07:27:42.191Z,14.81
2018-04-29T07:32:38.483Z,15.14
2018-04-29T07:37:34.565Z,15.36
2018-04-29T07:42:30.661Z,15.19
2018-04-29T07:47:26.645Z,15.29
2018-04-29T07:52:22.448Z,15.49
2018-04-29T07:57:22.507Z,15.18
2018-04-29T08:02:17.216Z,15.18
2018-04-29T08:07:13.373Z,15.54
2018-04-29T08:12:09.330Z,15.43
2018-04-29T08:17:04.733Z,15.51
2018-04-29T08:22:00.417Z,15.42
2018-04-29T08:26:56.163Z,15.51
2018-04-29T08:31:51.848Z,15.09
2018-04-29T08:36:47.717Z,15.09
2018-04-29T08:41:47.480Z,15.03
2018-04-29T08:46:42.887Z,15.04
2018-04-29T08:51:38.617Z,14.85
2018-04-29T08:56:38.069Z,15.03
2018-04-29T09:01:39.424Z,15.59
2018-04-29T09:06:34.810Z,15.76
2018-04-29T09:11:30.698Z,16.02
2018-04-29T09:16:27.251Z,16.09
2018-04-29T09:21:24.515Z,15.55
2018-04-29T09:26:19.915Z,15.65
2018-04-29T09:31:15.913Z,15.91
2018-04-29T09:36:12.391Z,16.24
2018-04-29T09:41:08.245Z,16.51
2018-04-29T09:46:05.386Z,16.56
2018-04-29T09:51:00.764Z,16.38
2018-04-29T09:55:57.368Z,16.21
2018-04-29T10:00:56.657Z,15.64
2018-04-29T10:05:52.348Z,15.80
2018-04-29T10:10:48.450Z,15.97
2018-04-29T10:15:44.590Z,16.13
2018-04-29T10:20:45.365Z,16.41
2018-04-29T10:25:45.036Z,16.33
2018-04-29T10:30:41.634Z,16.74
2018-04-29T10:35:41.718Z,16.75
2018-04-29T10:40:37.169Z,17.09
2018-04-29T10:45:34.873Z,18.23
2018-04-29T10:50:33.230Z,19.07
2018-04-29T10:55:34.187Z,18.34
2018-04-29T11:00:27.551Z,18.60
2018-04-29T11:05:23.647Z,18.81
2018-04-29T11:10:21.763Z,19.12
2018-04-29T11:15:19.020Z,20.87
2018-04-29T11:20:16.010Z,20.31
2018-04-29T11:25:11.451Z,20.18
2018-04-29T11:30:07.956Z,20.31
2018-04-29T11:35:05.177Z,20.63
2018-04-29T11:40:02.097Z,20.43
2018-04-29T11:45:00.531Z,20.67
2018-04-29T11:49:55.547Z,20.90
2018-04-29T11:54:51.931Z,21.27
2018-04-29T11:59:51.369Z,21.15
2018-04-29T12:04:46.653Z,21.35
2018-04-29T12:09:45.342Z,22.55
2018-04-29T12:14:40.738Z,22.11
2018-04-29T12:19:35.856Z,21.45
2018-04-29T12:24:34.709Z,20.96
2018-04-29T12:29:30.495Z,21.25
2018-04-29T12:34:26.277Z,21.02
2018-04-29T12:39:26.578Z,21.33
2018-04-29T12:44:21.637Z,20.93
2018-04-29T12:49:17.615Z,21.12
2018-04-29T12:54:13.557Z,20.70
2018-04-29T12:59:14.061Z,20.78
2018-04-29T13:04:09.257Z,21.07
2018-04-29T13:09:06.479Z,22.02
2018-04-29T13:14:02.391Z,22.51
2018-04-29T13:18:58.174Z,22.33
2018-04-29T13:23:53.775Z,21.87
2018-04-29T13:28:54.055Z,21.42
2018-04-29T13:33:52.836Z,21.29
2018-04-29T13:38:47.551Z,20.95
2018-04-29T13:43:47.138Z,21.15
2018-04-29T13:48:42.425Z,21.36
2018-04-29T13:53:38.344Z,21.18
2018-04-29T13:58:38.046Z,21.07
2018-04-29T14:03:33.777Z,21.24
2018-04-29T14:08:28.894Z,21.11
2018-04-29T14:13:24.779Z,21.06
2018-04-29T14:18:20.632Z,21.14
2018-04-29T14:23:16.636Z,21.35
2018-04-29T14:28:12.875Z,21.60
2018-04-29T14:33:10.017Z,21.66
2018-04-29T14:38:05.958Z,21.36
2018-04-29T14:43:01.505Z,21.30
2018-04-29T14:47:57.404Z,21.25
2018-04-29T14:52:53.356Z,21.21
2018-04-29T14:57:49.309Z,21.20
2018-04-29T15:02:45.486Z,21.39
2018-04-29T15:07:41.431Z,21.20
2018-04-29T15:12:37.153Z,21.03
2018-04-29T15:17:36.973Z,20.93
2018-04-29T15:22:32.104Z,21.09
2018-04-29T15:27:29.019Z,21.35
2018-04-29T15:32:24.445Z,21.18
2018-04-29T15:37:23.992Z,20.93
2018-04-29T15:42:19.155Z,20.92
2018-04-29T15:47:14.978Z,20.93
2018-04-29T15:52:14.929Z,20.95
2018-04-29T15:57:09.996Z,20.90
2018-04-29T16:02:09.788Z,20.78
2018-04-29T16:07:05.756Z,20.82
2018-04-29T16:12:02.690Z,20.77
2018-04-29T16:16:59.486Z,20.60
2018-04-29T16:21:58.614Z,20.56
2018-04-29T16:26:53.632Z,20.51
2018-04-29T16:31:53.789Z,20.41
2018-04-29T16:36:53.329Z,20.32
2018-04-29T16:41:48.402Z,20.32
2018-04-29T16:46:47.947Z,20.32
2018-04-29T16:51:46.917Z,20.32
2018-04-29T16:56:42.123Z,20.11
2018-04-29T17:01:38.030Z,20.18
2018-04-29T17:06:37.770Z,20.21
2018-04-29T17:11:36.865Z,20.18
2018-04-29T17:16:31.863Z,20.24
2018-04-29T17:21:31.378Z,20.03
2018-04-29T17:26:26.917Z,20.03
2018-04-29T17:31:23.651Z,19.89
2018-04-29T17:36:22.938Z,19.88
2018-04-29T17:41:18.238Z,19.73
2018-04-29T17:46:16.081Z,19.73
2018-04-29T17:51:11.547Z,19.62
2018-04-29T17:56:07.410Z,19.59
2018-04-29T18:01:04.238Z,19.66
2018-04-29T18:06:03.611Z,19.55
2018-04-29T18:10:59.585Z,19.47
2018-04-29T18:15:54.934Z,19.39
2018-04-29T18:20:50.535Z,19.21
2018-04-29T18:25:46.349Z,19.15
2018-04-29T18:30:42.449Z,19.11
2018-04-29T18:35:38.418Z,19.02
2018-04-29T18:40:35.227Z,18.92
2018-04-29T18:45:34.848Z,18.95
2018-04-29T18:50:34.081Z,18.75
2018-04-29T18:55:32.676Z,18.70
2018-04-29T19:00:31.557Z,18.66
2018-04-29T19:05:26.473Z,18.63
2018-04-29T19:10:27.177Z,18.59
2018-04-29T19:15:26.032Z,18.60
2018-04-29T19:20:21.284Z,18.49
2018-04-29T19:25:22.015Z,18.33
2018-04-29T19:30:17.544Z,18.26
2018-04-29T19:35:14.459Z,18.25
2018-04-29T19:40:10.372Z,18.22
2018-04-29T19:45:11.099Z,18.05
2018-04-29T19:50:09.541Z,18.01
2018-04-29T19:55:08.528Z,17.92
2018-04-29T20:00:04.425Z,17.89
2018-04-29T20:05:03.452Z,17.82
2018-04-29T20:10:02.308Z,17.71
2018-04-29T20:15:02.038Z,17.76
2018-04-29T20:19:57.912Z,17.78
2018-04-29T20:24:54.378Z,17.67
2018-04-29T20:29:54.835Z,17.49
2018-04-29T20:34:53.427Z,17.54
2018-04-29T20:39:52.389Z,17.49
2018-04-29T20:44:51.356Z,17.44
2018-04-29T20:49:46.184Z,17.30
2018-04-29T20:54:45.804Z,17.23
2018-04-29T20:59:45.010Z,17.11
2018-04-29T21:04:40.032Z,17.01
2018-04-29T21:09:35.627Z,16.97
2018-04-29T21:14:33.229Z,16.99
2018-04-29T21:19:28.857Z,17.11
2018-04-29T21:24:28.463Z,17.02
2018-04-29T21:29:23.688Z,17.09
2018-04-29T21:34:24.745Z,17.15
2018-04-29T21:39:23.467Z,17.15
2018-04-29T21:44:22.249Z,17.19
2018-04-29T21:49:20.975Z,17.20
2018-04-29T21:54:15.991Z,17.08
2018-04-29T21:59:15.647Z,17.09
2018-04-29T22:04:11.706Z,17.20
2018-04-29T22:09:07.361Z,17.11
2018-04-29T22:14:03.182Z,17.05
2018-04-29T22:18:59.846Z,17.01
2018-04-29T22:23:57.208Z,16.81
2018-04-29T22:28:53.393Z,16.72
2018-04-29T22:33:48.686Z,16.78
2018-04-29T22:38:44.686Z,16.61
2018-04-29T22:43:40.525Z,16.57
2018-04-29T22:48:36.167Z,16.61
2018-04-29T22:53:35.732Z,16.46
2018-04-29T22:58:30.723Z,16.35
2018-04-29T23:03:30.114Z,16.29
2018-04-29T23:08:26.277Z,16.31
2018-04-29T23:13:26.203Z,16.35
2018-04-29T23:18:21.122Z,16.31
2018-04-29T23:23:17.804Z,16.21
2018-04-29T23:28:13.631Z,16.17
2018-04-29T23:33:09.487Z,16.15
2018-04-29T23:38:04.806Z,15.97
2018-04-29T23:43:04.740Z,16.02
2018-04-29T23:48:03.984Z,16.00
2018-04-29T23:53:00.129Z,15.94
2018-04-29T23:57:56.110Z,15.83
